sensor_id;sensor_type;location;lat;lon;timestamp;pressure;altitude;pressure_sealevel;temperature;humidity
20930;BME280;21895;47.072;15.132;2022-08-11T00:00:07;97285.00;;;17.49;61.17
20930;BME280;21895;47.072;15.132;2022-08-11T00:02:45;97288.00;;;17.30;62.13
20930;BME280;21895;47.072;15.132;2022-08-11T00:05:19;97295.00;;;17.04;63.54
20930;BME280;21895;47.072;15.132;2022-08-11T00:07:54;97300.00;;;16.75;65.58
20930;BME280;21895;47.072;15.132;2022-08-11T00:10:28;97288.00;;;16.51;66.16
20930;BME280;21895;47.072;15.132;2022-08-11T00:13:03;97299.00;;;16.63;62.68
20930;BME280;21895;47.072;15.132;2022-08-11T00:15:43;97296.00;;;16.71;61.41
20930;BME280;21895;47.072;15.132;2022-08-11T00:18:11;97295.00;;;16.61;63.80
20930;BME280;21895;47.072;15.132;2022-08-11T00:20:42;97293.00;;;16.21;65.95
20930;BME280;21895;47.072;15.132;2022-08-11T00:23:15;97291.00;;;16.11;66.38
20930;BME280;21895;47.072;15.132;2022-08-11T00:25:48;97297.00;;;15.96;67.66
20930;BME280;21895;47.072;15.132;2022-08-11T00:28:32;97297.00;;;15.98;67.78
20930;BME280;21895;47.072;15.132;2022-08-11T00:31:06;97291.00;;;15.89;67.91
20930;BME280;21895;47.072;15.132;2022-08-11T00:33:45;97302.00;;;15.97;67.73
20930;BME280;21895;47.072;15.132;2022-08-11T00:36:18;97290.00;;;15.80;67.82
20930;BME280;21895;47.072;15.132;2022-08-11T00:38:52;97290.00;;;15.68;68.28
20930;BME280;21895;47.072;15.132;2022-08-11T00:48:35;97292.00;;;15.66;68.86
20930;BME280;21895;47.072;15.132;2022-08-11T00:59:22;97280.00;;;15.60;70.57
20930;BME280;21895;47.072;15.132;2022-08-11T01:16:10;97284.00;;;14.95;70.69
20930;BME280;21895;47.072;15.132;2022-08-11T01:43:01;97279.00;;;14.65;72.17
20930;BME280;21895;47.072;15.132;2022-08-11T01:48:40;97278.00;;;14.68;72.38
20930;BME280;21895;47.072;15.132;2022-08-11T01:52:05;97277.00;;;14.65;72.32
20930;BME280;21895;47.072;15.132;2022-08-11T02:00:20;97263.00;;;14.59;72.00
20930;BME280;21895;47.072;15.132;2022-08-11T02:03:38;97260.00;;;14.50;72.17
20930;BME280;21895;47.072;15.132;2022-08-11T02:06:39;97260.00;;;14.58;71.54
20930;BME280;21895;47.072;15.132;2022-08-11T02:10:13;97266.00;;;14.64;71.07
20930;BME280;21895;47.072;15.132;2022-08-11T02:18:23;97261.00;;;14.57;70.30
20930;BME280;21895;47.072;15.132;2022-08-11T02:27:06;97251.00;;;14.24;71.92
20930;BME280;21895;47.072;15.132;2022-08-11T02:30:21;97253.00;;;14.12;72.49
20930;BME280;21895;47.072;15.132;2022-08-11T02:33:23;97250.00;;;14.17;72.50
20930;BME280;21895;47.072;15.132;2022-08-11T02:36:23;97251.00;;;14.27;71.92
20930;BME280;21895;47.072;15.132;2022-08-11T02:39:05;97250.00;;;14.46;71.59
20930;BME280;21895;47.072;15.132;2022-08-11T02:43:16;97249.00;;;14.45;71.59
20930;BME280;21895;47.072;15.132;2022-08-11T02:52:19;97254.00;;;14.19;72.05
20930;BME280;21895;47.072;15.132;2022-08-11T02:55:21;97249.00;;;13.89;71.90
20930;BME280;21895;47.072;15.132;2022-08-11T02:58:56;97249.00;;;13.74;72.41
20930;BME280;21895;47.072;15.132;2022-08-11T03:01:59;97246.00;;;13.69;73.41
20930;BME280;21895;47.072;15.132;2022-08-11T03:06:28;97244.00;;;13.71;73.70
20930;BME280;21895;47.072;15.132;2022-08-11T03:09:39;97245.00;;;13.80;73.85
20930;BME280;21895;47.072;15.132;2022-08-11T03:12:19;97239.00;;;13.81;73.02
20930;BME280;21895;47.072;15.132;2022-08-11T03:15:19;97236.00;;;13.85;72.20
20930;BME280;21895;47.072;15.132;2022-08-11T03:18:40;97237.00;;;13.70;72.64
20930;BME280;21895;47.072;15.132;2022-08-11T03:21:23;97242.00;;;13.63;73.41
20930;BME280;21895;47.072;15.132;2022-08-11T03:25:07;97241.00;;;13.59;73.40
20930;BME280;21895;47.072;15.132;2022-08-11T03:27:53;97248.00;;;13.72;73.13
20930;BME280;21895;47.072;15.132;2022-08-11T03:31:26;97246.00;;;13.67;73.06
20930;BME280;21895;47.072;15.132;2022-08-11T03:34:08;97247.00;;;13.59;72.53
20930;BME280;21895;47.072;15.132;2022-08-11T03:42:00;97248.00;;;13.64;72.30
20930;BME280;21895;47.072;15.132;2022-08-11T03:49:22;97255.00;;;13.54;71.96
20930;BME280;21895;47.072;15.132;2022-08-11T03:52:20;97247.00;;;13.41;73.82
20930;BME280;21895;47.072;15.132;2022-08-11T03:58:22;97253.00;;;13.31;74.26
20930;BME280;21895;47.072;15.132;2022-08-11T04:23:57;97247.00;;;13.83;71.26
20930;BME280;21895;47.072;15.132;2022-08-11T04:27:58;97252.00;;;13.80;71.35
20930;BME280;21895;47.072;15.132;2022-08-11T04:31:16;97254.00;;;13.93;71.23
20930;BME280;21895;47.072;15.132;2022-08-11T04:56:17;97269.00;;;14.19;71.93
20930;BME280;21895;47.072;15.132;2022-08-11T05:08:49;97276.00;;;14.51;72.30
20930;BME280;21895;47.072;15.132;2022-08-11T05:14:29;97277.00;;;14.81;71.04
20930;BME280;21895;47.072;15.132;2022-08-11T05:17:26;97279.00;;;15.09;70.83
20930;BME280;21895;47.072;15.132;2022-08-11T05:20:14;97278.00;;;15.22;71.30
20930;BME280;21895;47.072;15.132;2022-08-11T05:23:05;97275.00;;;15.57;71.80
20930;BME280;21895;47.072;15.132;2022-08-11T05:25:56;97276.00;;;15.63;72.50
20930;BME280;21895;47.072;15.132;2022-08-11T05:29:39;97285.00;;;15.92;71.97
20930;BME280;21895;47.072;15.132;2022-08-11T05:32:31;97270.00;;;16.38;70.23
20930;BME280;21895;47.072;15.132;2022-08-11T05:35:49;97277.00;;;16.90;67.46
20930;BME280;21895;47.072;15.132;2022-08-11T05:38:33;97268.00;;;17.49;65.40
20930;BME280;21895;47.072;15.132;2022-08-11T05:41:24;97270.00;;;18.01;62.99
20930;BME280;21895;47.072;15.132;2022-08-11T05:44:17;97271.00;;;18.37;61.25
20930;BME280;21895;47.072;15.132;2022-08-11T05:47:03;97270.00;;;18.67;60.21
20930;BME280;21895;47.072;15.132;2022-08-11T05:49:50;97276.00;;;18.95;58.88
20930;BME280;21895;47.072;15.132;2022-08-11T05:52:45;97272.00;;;19.28;57.47
20930;BME280;21895;47.072;15.132;2022-08-11T05:55:40;97274.00;;;19.49;56.15
20930;BME280;21895;47.072;15.132;2022-08-11T05:58:39;97267.00;;;20.00;54.72
20930;BME280;21895;47.072;15.132;2022-08-11T06:01:24;97266.00;;;20.21;53.72
20930;BME280;21895;47.072;15.132;2022-08-11T06:03:55;97262.00;;;20.59;51.81
20930;BME280;21895;47.072;15.132;2022-08-11T06:07:09;97266.00;;;20.64;50.96
20930;BME280;21895;47.072;15.132;2022-08-11T06:09:48;97272.00;;;20.72;51.82
20930;BME280;21895;47.072;15.132;2022-08-11T06:12:22;97266.00;;;20.81;51.95
20930;BME280;21895;47.072;15.132;2022-08-11T06:14:54;97269.00;;;21.12;50.57
20930;BME280;21895;47.072;15.132;2022-08-11T06:17:30;97267.00;;;21.38;49.98
20930;BME280;21895;47.072;15.132;2022-08-11T06:20:10;97258.00;;;21.46;50.21
20930;BME280;21895;47.072;15.132;2022-08-11T06:22:41;97261.00;;;21.58;48.75
20930;BME280;21895;47.072;15.132;2022-08-11T06:25:10;97266.00;;;21.54;48.51
20930;BME280;21895;47.072;15.132;2022-08-11T06:27:40;97261.00;;;21.97;47.68
20930;BME280;21895;47.072;15.132;2022-08-11T06:30:09;97265.00;;;21.96;47.46
20930;BME280;21895;47.072;15.132;2022-08-11T06:32:44;97266.00;;;22.28;47.46
20930;BME280;21895;47.072;15.132;2022-08-11T06:35:24;97268.00;;;22.29;47.61
20930;BME280;21895;47.072;15.132;2022-08-11T06:38:19;97268.00;;;22.44;46.81
20930;BME280;21895;47.072;15.132;2022-08-11T06:40:57;97262.00;;;22.66;45.53
20930;BME280;21895;47.072;15.132;2022-08-11T06:44:14;97267.00;;;22.90;45.08
20930;BME280;21895;47.072;15.132;2022-08-11T06:46:52;97263.00;;;23.11;44.65
20930;BME280;21895;47.072;15.132;2022-08-11T06:49:32;97267.00;;;23.24;45.14
20930;BME280;21895;47.072;15.132;2022-08-11T06:52:18;97263.00;;;23.32;44.62
20930;BME280;21895;47.072;15.132;2022-08-11T06:55:23;97258.00;;;23.72;43.62
20930;BME280;21895;47.072;15.132;2022-08-11T06:58:31;97259.00;;;23.87;44.56
20930;BME280;21895;47.072;15.132;2022-08-11T07:02:25;97257.00;;;24.06;42.53
20930;BME280;21895;47.072;15.132;2022-08-11T07:05:18;97251.00;;;24.38;41.68
20930;BME280;21895;47.072;15.132;2022-08-11T07:12:16;97252.00;;;24.51;39.08
20930;BME280;21895;47.072;15.132;2022-08-11T07:15:10;97244.00;;;24.98;40.18
20930;BME280;21895;47.072;15.132;2022-08-11T07:18:41;97243.00;;;25.35;39.66
20930;BME280;21895;47.072;15.132;2022-08-11T07:21:35;97244.00;;;25.52;38.54
20930;BME280;21895;47.072;15.132;2022-08-11T07:24:43;97241.00;;;25.63;36.61
20930;BME280;21895;47.072;15.132;2022-08-11T07:27:59;97230.00;;;25.70;37.40
20930;BME280;21895;47.072;15.132;2022-08-11T07:30:46;97235.00;;;25.97;36.30
20930;BME280;21895;47.072;15.132;2022-08-11T07:33:29;97244.00;;;26.07;36.40
20930;BME280;21895;47.072;15.132;2022-08-11T07:36:46;97229.00;;;26.13;36.82
20930;BME280;21895;47.072;15.132;2022-08-11T07:39:21;97236.00;;;26.31;36.84
20930;BME280;21895;47.072;15.132;2022-08-11T07:41:54;97236.00;;;26.43;36.34
20930;BME280;21895;47.072;15.132;2022-08-11T07:44:25;97233.00;;;26.46;36.73
20930;BME280;21895;47.072;15.132;2022-08-11T07:47:01;97223.00;;;26.52;37.26
20930;BME280;21895;47.072;15.132;2022-08-11T07:49:49;97222.00;;;26.78;37.68
20930;BME280;21895;47.072;15.132;2022-08-11T07:52:36;97230.00;;;26.77;37.54
20930;BME280;21895;47.072;15.132;2022-08-11T07:55:15;97225.00;;;26.79;36.84
20930;BME280;21895;47.072;15.132;2022-08-11T07:57:46;97219.00;;;26.90;36.58
20930;BME280;21895;47.072;15.132;2022-08-11T08:00:56;97224.00;;;26.88;35.83
20930;BME280;21895;47.072;15.132;2022-08-11T08:03:48;97220.00;;;27.13;35.33
20930;BME280;21895;47.072;15.132;2022-08-11T08:06:37;97211.00;;;27.19;35.23
20930;BME280;21895;47.072;15.132;2022-08-11T08:09:24;97213.00;;;27.24;34.39
20930;BME280;21895;47.072;15.132;2022-08-11T08:12:10;97208.00;;;27.19;34.01
20930;BME280;21895;47.072;15.132;2022-08-11T08:14:56;97210.00;;;27.31;34.26
20930;BME280;21895;47.072;15.132;2022-08-11T08:17:43;97212.00;;;27.44;33.99
20930;BME280;21895;47.072;15.132;2022-08-11T08:20:53;97211.00;;;27.42;34.52
20930;BME280;21895;47.072;15.132;2022-08-11T08:23:25;97201.00;;;27.54;34.67
20930;BME280;21895;47.072;15.132;2022-08-11T08:26:06;97194.00;;;27.57;34.39
20930;BME280;21895;47.072;15.132;2022-08-11T08:28:54;97197.00;;;27.66;33.44
20930;BME280;21895;47.072;15.132;2022-08-11T08:33:17;97199.00;;;27.76;34.12
20930;BME280;21895;47.072;15.132;2022-08-11T08:35:47;97197.00;;;27.38;34.29
20930;BME280;21895;47.072;15.132;2022-08-11T08:38:22;97193.00;;;27.56;34.71
20930;BME280;21895;47.072;15.132;2022-08-11T08:40:52;97193.00;;;27.88;34.04
20930;BME280;21895;47.072;15.132;2022-08-11T08:43:23;97200.00;;;27.94;34.06
20930;BME280;21895;47.072;15.132;2022-08-11T08:45:55;97194.00;;;27.75;33.55
20930;BME280;21895;47.072;15.132;2022-08-11T08:48:24;97197.00;;;27.71;34.04
20930;BME280;21895;47.072;15.132;2022-08-11T08:51:08;97186.00;;;28.03;33.98
20930;BME280;21895;47.072;15.132;2022-08-11T08:54:33;97186.00;;;27.66;34.75
20930;BME280;21895;47.072;15.132;2022-08-11T08:57:05;97193.00;;;27.88;34.06
20930;BME280;21895;47.072;15.132;2022-08-11T08:59:39;97181.00;;;27.89;34.66
20930;BME280;21895;47.072;15.132;2022-08-11T09:02:18;97177.00;;;27.97;34.30
20930;BME280;21895;47.072;15.132;2022-08-11T09:05:04;97176.00;;;27.91;33.35
20930;BME280;21895;47.072;15.132;2022-08-11T09:07:33;97172.00;;;28.18;33.68
20930;BME280;21895;47.072;15.132;2022-08-11T09:10:10;97170.00;;;28.19;33.47
20930;BME280;21895;47.072;15.132;2022-08-11T09:12:40;97162.00;;;28.32;33.58
20930;BME280;21895;47.072;15.132;2022-08-11T09:15:10;97163.00;;;28.26;32.60
20930;BME280;21895;47.072;15.132;2022-08-11T09:17:55;97166.00;;;28.23;33.05
20930;BME280;21895;47.072;15.132;2022-08-11T09:20:33;97164.00;;;28.44;32.30
20930;BME280;21895;47.072;15.132;2022-08-11T09:23:05;97157.00;;;28.45;32.95
20930;BME280;21895;47.072;15.132;2022-08-11T09:26:21;97165.00;;;28.55;33.67
20930;BME280;21895;47.072;15.132;2022-08-11T09:29:09;97157.00;;;28.69;33.74
20930;BME280;21895;47.072;15.132;2022-08-11T09:31:37;97142.00;;;28.84;32.64
20930;BME280;21895;47.072;15.132;2022-08-11T09:34:10;97150.00;;;28.23;32.88
20930;BME280;21895;47.072;15.132;2022-08-11T09:36:42;97142.00;;;28.32;33.18
20930;BME280;21895;47.072;15.132;2022-08-11T09:39:30;97144.00;;;28.54;33.38
20930;BME280;21895;47.072;15.132;2022-08-11T09:42:16;97145.00;;;28.79;33.43
20930;BME280;21895;47.072;15.132;2022-08-11T09:44:50;97140.00;;;28.87;32.69
20930;BME280;21895;47.072;15.132;2022-08-11T09:47:29;97131.00;;;28.65;32.47
20930;BME280;21895;47.072;15.132;2022-08-11T09:50:01;97126.00;;;28.76;32.30
20930;BME280;21895;47.072;15.132;2022-08-11T09:52:34;97132.00;;;29.04;32.86
20930;BME280;21895;47.072;15.132;2022-08-11T09:55:02;97123.00;;;29.30;32.07
20930;BME280;21895;47.072;15.132;2022-08-11T09:57:43;97123.00;;;29.51;31.41
20930;BME280;21895;47.072;15.132;2022-08-11T10:00:35;97128.00;;;29.21;30.91
20930;BME280;21895;47.072;15.132;2022-08-11T10:03:23;97120.00;;;28.89;30.96
20930;BME280;21895;47.072;15.132;2022-08-11T10:05:57;97120.00;;;29.05;31.60
20930;BME280;21895;47.072;15.132;2022-08-11T10:08:45;97115.00;;;29.26;31.03
20930;BME280;21895;47.072;15.132;2022-08-11T10:11:17;97110.00;;;29.01;30.59
20930;BME280;21895;47.072;15.132;2022-08-11T10:13:51;97101.00;;;29.20;31.01
20930;BME280;21895;47.072;15.132;2022-08-11T10:17:07;97092.00;;;29.28;32.02
20930;BME280;21895;47.072;15.132;2022-08-11T10:19:38;97100.00;;;29.57;31.63
20930;BME280;21895;47.072;15.132;2022-08-11T10:22:06;97094.00;;;29.76;30.27
20930;BME280;21895;47.072;15.132;2022-08-11T10:24:55;97084.00;;;29.79;30.01
20930;BME280;21895;47.072;15.132;2022-08-11T10:27:47;97088.00;;;29.53;29.20
20930;BME280;21895;47.072;15.132;2022-08-11T10:31:06;97081.00;;;29.61;29.56
20930;BME280;21895;47.072;15.132;2022-08-11T10:34:10;97072.00;;;29.67;29.44
20930;BME280;21895;47.072;15.132;2022-08-11T10:36:41;97076.00;;;29.66;30.44
20930;BME280;21895;47.072;15.132;2022-08-11T10:39:20;97072.00;;;29.47;31.16
20930;BME280;21895;47.072;15.132;2022-08-11T10:41:48;97068.00;;;29.30;31.35
20930;BME280;21895;47.072;15.132;2022-08-11T10:44:50;97055.00;;;29.27;30.88
20930;BME280;21895;47.072;15.132;2022-08-11T10:47:17;97054.00;;;29.15;31.01
20930;BME280;21895;47.072;15.132;2022-08-11T10:50:13;97064.00;;;29.50;30.32
20930;BME280;21895;47.072;15.132;2022-08-11T10:52:59;97049.00;;;29.70;29.70
20930;BME280;21895;47.072;15.132;2022-08-11T10:55:46;97052.00;;;29.79;29.43
20930;BME280;21895;47.072;15.132;2022-08-11T10:58:32;97055.00;;;29.46;29.02
20930;BME280;21895;47.072;15.132;2022-08-11T11:01:14;97049.00;;;29.30;30.33
20930;BME280;21895;47.072;15.132;2022-08-11T11:03:42;97046.00;;;29.33;29.03
20930;BME280;21895;47.072;15.132;2022-08-11T11:08:10;97038.00;;;29.63;29.08
20930;BME280;21895;47.072;15.132;2022-08-11T11:11:24;97033.00;;;29.70;28.45
20930;BME280;21895;47.072;15.132;2022-08-11T11:15:58;97039.00;;;29.76;28.39
20930;BME280;21895;47.072;15.132;2022-08-11T11:18:43;97026.00;;;29.87;28.26
20930;BME280;21895;47.072;15.132;2022-08-11T11:21:27;97028.00;;;29.95;27.74
20930;BME280;21895;47.072;15.132;2022-08-11T11:24:29;97026.00;;;30.24;29.01
20930;BME280;21895;47.072;15.132;2022-08-11T11:33:18;97030.00;;;30.07;28.73
20930;BME280;21895;47.072;15.132;2022-08-11T11:36:30;97022.00;;;30.13;28.01
20930;BME280;21895;47.072;15.132;2022-08-11T11:39:00;97027.00;;;30.23;28.18
20930;BME280;21895;47.072;15.132;2022-08-11T11:41:28;97028.00;;;30.30;28.22
20930;BME280;21895;47.072;15.132;2022-08-11T11:43:55;97034.00;;;30.24;27.69
20930;BME280;21895;47.072;15.132;2022-08-11T11:46:29;97030.00;;;30.00;27.74
20930;BME280;21895;47.072;15.132;2022-08-11T11:48:58;97026.00;;;30.01;27.80
20930;BME280;21895;47.072;15.132;2022-08-11T11:51:45;97031.00;;;29.83;27.80
20930;BME280;21895;47.072;15.132;2022-08-11T11:54:27;97031.00;;;30.01;28.27
20930;BME280;21895;47.072;15.132;2022-08-11T11:56:56;97019.00;;;30.27;27.25
20930;BME280;21895;47.072;15.132;2022-08-11T12:01:27;97024.00;;;30.33;28.11
20930;BME280;21895;47.072;15.132;2022-08-11T12:03:56;97021.00;;;30.57;27.86
20930;BME280;21895;47.072;15.132;2022-08-11T12:06:24;97016.00;;;30.31;28.02
20930;BME280;21895;47.072;15.132;2022-08-11T12:08:55;97003.00;;;30.44;28.09
20930;BME280;21895;47.072;15.132;2022-08-11T12:11:25;96997.00;;;30.49;27.43
20930;BME280;21895;47.072;15.132;2022-08-11T12:14:18;96998.00;;;30.18;29.21
20930;BME280;21895;47.072;15.132;2022-08-11T12:16:46;96993.00;;;29.99;28.20
20930;BME280;21895;47.072;15.132;2022-08-11T12:19:17;96985.00;;;30.10;27.85
20930;BME280;21895;47.072;15.132;2022-08-11T12:21:48;96990.00;;;30.17;27.63
20930;BME280;21895;47.072;15.132;2022-08-11T12:24:34;96978.00;;;30.48;27.68
20930;BME280;21895;47.072;15.132;2022-08-11T12:27:21;96979.00;;;30.77;27.16
20930;BME280;21895;47.072;15.132;2022-08-11T12:30:03;96972.00;;;30.65;26.93
20930;BME280;21895;47.072;15.132;2022-08-11T12:32:34;96977.00;;;30.33;26.92
20930;BME280;21895;47.072;15.132;2022-08-11T12:35:03;96976.00;;;30.29;27.75
20930;BME280;21895;47.072;15.132;2022-08-11T12:37:36;96971.00;;;30.47;27.89
20930;BME280;21895;47.072;15.132;2022-08-11T12:40:13;96957.00;;;30.59;28.22
20930;BME280;21895;47.072;15.132;2022-08-11T12:43:44;96952.00;;;30.34;27.53
20930;BME280;21895;47.072;15.132;2022-08-11T12:46:35;96956.00;;;30.19;27.82
20930;BME280;21895;47.072;15.132;2022-08-11T12:49:23;96953.00;;;30.14;28.47
20930;BME280;21895;47.072;15.132;2022-08-11T12:52:25;96958.00;;;30.45;28.06
20930;BME280;21895;47.072;15.132;2022-08-11T12:55:34;96952.00;;;30.56;26.94
20930;BME280;21895;47.072;15.132;2022-08-11T12:58:36;96943.00;;;30.57;27.57
20930;BME280;21895;47.072;15.132;2022-08-11T13:01:06;96951.00;;;30.76;26.55
20930;BME280;21895;47.072;15.132;2022-08-11T13:03:51;96943.00;;;30.80;26.91
20930;BME280;21895;47.072;15.132;2022-08-11T13:06:37;96940.00;;;30.96;26.83
20930;BME280;21895;47.072;15.132;2022-08-11T13:09:06;96937.00;;;31.14;26.42
20930;BME280;21895;47.072;15.132;2022-08-11T13:11:37;96933.00;;;31.35;26.50
20930;BME280;21895;47.072;15.132;2022-08-11T13:14:26;96945.00;;;30.97;26.76
20930;BME280;21895;47.072;15.132;2022-08-11T13:16:53;96932.00;;;30.87;26.46
20930;BME280;21895;47.072;15.132;2022-08-11T13:19:40;96928.00;;;30.81;26.49
20930;BME280;21895;47.072;15.132;2022-08-11T13:22:10;96926.00;;;30.86;26.54
20930;BME280;21895;47.072;15.132;2022-08-11T13:24:39;96919.00;;;30.34;27.29
20930;BME280;21895;47.072;15.132;2022-08-11T13:27:06;96921.00;;;30.36;27.28
20930;BME280;21895;47.072;15.132;2022-08-11T13:29:34;96916.00;;;30.20;27.93
20930;BME280;21895;47.072;15.132;2022-08-11T13:32:02;96916.00;;;30.24;27.44
20930;BME280;21895;47.072;15.132;2022-08-11T13:34:29;96906.00;;;30.40;26.76
20930;BME280;21895;47.072;15.132;2022-08-11T13:37:01;96907.00;;;30.64;27.04
20930;BME280;21895;47.072;15.132;2022-08-11T13:39:31;96913.00;;;30.78;26.68
20930;BME280;21895;47.072;15.132;2022-08-11T13:42:01;96905.00;;;30.65;27.22
20930;BME280;21895;47.072;15.132;2022-08-11T13:44:32;96908.00;;;30.68;26.73
20930;BME280;21895;47.072;15.132;2022-08-11T13:47:07;96898.00;;;30.67;25.94
20930;BME280;21895;47.072;15.132;2022-08-11T13:49:40;96902.00;;;30.70;27.04
20930;BME280;21895;47.072;15.132;2022-08-11T13:52:14;96900.00;;;30.90;26.49
20930;BME280;21895;47.072;15.132;2022-08-11T13:54:45;96893.00;;;30.92;26.71
20930;BME280;21895;47.072;15.132;2022-08-11T13:57:14;96898.00;;;30.97;26.66
20930;BME280;21895;47.072;15.132;2022-08-11T14:00:50;96893.00;;;30.95;25.97
20930;BME280;21895;47.072;15.132;2022-08-11T14:03:29;96880.00;;;30.98;26.23
20930;BME280;21895;47.072;15.132;2022-08-11T14:06:59;96878.00;;;30.75;25.78
20930;BME280;21895;47.072;15.132;2022-08-11T14:09:36;96872.00;;;30.68;26.38
20930;BME280;21895;47.072;15.132;2022-08-11T14:12:12;96883.00;;;30.71;26.58
20930;BME280;21895;47.072;15.132;2022-08-11T14:15:23;96876.00;;;30.61;26.04
20930;BME280;21895;47.072;15.132;2022-08-11T14:17:57;96869.00;;;30.75;26.46
20930;BME280;21895;47.072;15.132;2022-08-11T14:20:39;96873.00;;;31.00;26.31
20930;BME280;21895;47.072;15.132;2022-08-11T14:23:31;96873.00;;;30.84;25.38
20930;BME280;21895;47.072;15.132;2022-08-11T14:26:01;96861.00;;;30.73;26.29
20930;BME280;21895;47.072;15.132;2022-08-11T14:28:46;96866.00;;;30.52;27.32
20930;BME280;21895;47.072;15.132;2022-08-11T14:31:14;96865.00;;;30.51;26.83
20930;BME280;21895;47.072;15.132;2022-08-11T14:33:44;96871.00;;;30.25;26.52
20930;BME280;21895;47.072;15.132;2022-08-11T14:36:38;96863.00;;;30.06;27.79
20930;BME280;21895;47.072;15.132;2022-08-11T14:39:12;96857.00;;;30.19;27.17
20930;BME280;21895;47.072;15.132;2022-08-11T14:41:43;96860.00;;;30.18;26.96
20930;BME280;21895;47.072;15.132;2022-08-11T14:44:51;96865.00;;;30.11;26.83
20930;BME280;21895;47.072;15.132;2022-08-11T14:47:40;96859.00;;;30.12;26.93
20930;BME280;21895;47.072;15.132;2022-08-11T14:50:18;96853.00;;;30.21;26.73
20930;BME280;21895;47.072;15.132;2022-08-11T14:52:55;96845.00;;;30.15;26.51
20930;BME280;21895;47.072;15.132;2022-08-11T14:55:30;96854.00;;;30.25;26.96
20930;BME280;21895;47.072;15.132;2022-08-11T14:58:18;96848.00;;;30.17;26.87
20930;BME280;21895;47.072;15.132;2022-08-11T15:00:46;96843.00;;;30.25;26.77
20930;BME280;21895;47.072;15.132;2022-08-11T15:03:16;96836.00;;;30.33;27.19
20930;BME280;21895;47.072;15.132;2022-08-11T15:05:51;96841.00;;;30.44;26.62
20930;BME280;21895;47.072;15.132;2022-08-11T15:08:34;96836.00;;;30.59;26.47
20930;BME280;21895;47.072;15.132;2022-08-11T15:11:29;96837.00;;;30.61;27.14
20930;BME280;21895;47.072;15.132;2022-08-11T15:14:15;96835.00;;;30.94;25.82
20930;BME280;21895;47.072;15.132;2022-08-11T15:17:02;96842.00;;;30.81;26.38
20930;BME280;21895;47.072;15.132;2022-08-11T15:19:34;96831.00;;;30.61;26.96
20930;BME280;21895;47.072;15.132;2022-08-11T15:22:08;96836.00;;;30.27;27.54
20930;BME280;21895;47.072;15.132;2022-08-11T15:24:56;96838.00;;;30.27;27.48
20930;BME280;21895;47.072;15.132;2022-08-11T15:27:24;96833.00;;;30.32;26.95
20930;BME280;21895;47.072;15.132;2022-08-11T15:30:10;96826.00;;;29.65;27.89
20930;BME280;21895;47.072;15.132;2022-08-11T15:33:08;96834.00;;;29.51;28.04
20930;BME280;21895;47.072;15.132;2022-08-11T15:35:56;96826.00;;;29.56;27.65
20930;BME280;21895;47.072;15.132;2022-08-11T15:38:56;96821.00;;;29.65;28.48
20930;BME280;21895;47.072;15.132;2022-08-11T15:41:38;96816.00;;;29.62;28.44
20930;BME280;21895;47.072;15.132;2022-08-11T15:44:30;96819.00;;;29.47;28.34
20930;BME280;21895;47.072;15.132;2022-08-11T15:47:53;96817.00;;;29.38;28.65
20930;BME280;21895;47.072;15.132;2022-08-11T15:50:33;96811.00;;;29.34;28.63
20930;BME280;21895;47.072;15.132;2022-08-11T15:53:11;96817.00;;;29.22;29.41
20930;BME280;21895;47.072;15.132;2022-08-11T15:55:44;96818.00;;;29.02;29.87
20930;BME280;21895;47.072;15.132;2022-08-11T15:58:13;96820.00;;;29.08;29.37
20930;BME280;21895;47.072;15.132;2022-08-11T16:01:00;96822.00;;;29.13;28.85
20930;BME280;21895;47.072;15.132;2022-08-11T16:03:57;96814.00;;;28.98;30.35
20930;BME280;21895;47.072;15.132;2022-08-11T16:07:06;96809.00;;;29.00;29.25
20930;BME280;21895;47.072;15.132;2022-08-11T16:10:12;96815.00;;;29.01;29.97
20930;BME280;21895;47.072;15.132;2022-08-11T16:13:00;96810.00;;;29.12;29.36
20930;BME280;21895;47.072;15.132;2022-08-11T16:17:36;96813.00;;;29.04;29.35
20930;BME280;21895;47.072;15.132;2022-08-11T16:20:08;96817.00;;;29.10;29.65
20930;BME280;21895;47.072;15.132;2022-08-11T16:22:37;96810.00;;;29.04;29.99
20930;BME280;21895;47.072;15.132;2022-08-11T16:25:13;96806.00;;;29.17;29.83
20930;BME280;21895;47.072;15.132;2022-08-11T16:29:34;96812.00;;;28.96;30.20
20930;BME280;21895;47.072;15.132;2022-08-11T16:32:06;96815.00;;;28.83;30.23
20930;BME280;21895;47.072;15.132;2022-08-11T16:34:56;96805.00;;;28.60;29.90
20930;BME280;21895;47.072;15.132;2022-08-11T16:37:43;96808.00;;;28.48;30.65
20930;BME280;21895;47.072;15.132;2022-08-11T16:40:31;96808.00;;;28.25;30.80
20930;BME280;21895;47.072;15.132;2022-08-11T16:42:59;96811.00;;;28.03;31.60
20930;BME280;21895;47.072;15.132;2022-08-11T16:45:47;96819.00;;;27.94;32.16
20930;BME280;21895;47.072;15.132;2022-08-11T16:48:35;96813.00;;;27.83;32.19
20930;BME280;21895;47.072;15.132;2022-08-11T16:51:07;96814.00;;;27.65;32.29
20930;BME280;21895;47.072;15.132;2022-08-11T16:53:34;96817.00;;;27.59;32.16
20930;BME280;21895;47.072;15.132;2022-08-11T16:56:40;96811.00;;;27.49;32.47
20930;BME280;21895;47.072;15.132;2022-08-11T16:59:35;96817.00;;;27.44;32.52
20930;BME280;21895;47.072;15.132;2022-08-11T17:02:08;96822.00;;;27.56;32.83
20930;BME280;21895;47.072;15.132;2022-08-11T17:04:58;96824.00;;;27.43;33.32
20930;BME280;21895;47.072;15.132;2022-08-11T17:09:21;96831.00;;;27.33;33.44
20930;BME280;21895;47.072;15.132;2022-08-11T17:12:10;96829.00;;;27.41;33.45
20930;BME280;21895;47.072;15.132;2022-08-11T17:15:00;96827.00;;;27.33;32.87
20930;BME280;21895;47.072;15.132;2022-08-11T17:17:35;96829.00;;;27.29;33.71
20930;BME280;21895;47.072;15.132;2022-08-11T17:20:11;96831.00;;;27.25;33.88